createdAt,value
2019-03-18T00:00:42.859Z,5.03
2019-03-18T00:01:47.021Z,5.03
2019-03-18T00:02:51.160Z,5.03
2019-03-18T00:03:55.372Z,5.04
2019-03-18T00:04:59.526Z,5.04
2019-03-18T00:06:03.792Z,5.06
2019-03-18T00:07:08.016Z,5.06
2019-03-18T00:08:12.216Z,5.07
2019-03-18T00:09:16.443Z,5.09
2019-03-18T00:10:20.620Z,5.10
2019-03-18T00:11:24.867Z,5.13
2019-03-18T00:12:29.049Z,5.14
2019-03-18T00:13:33.235Z,5.16
2019-03-18T00:14:37.479Z,5.19
2019-03-18T00:15:41.655Z,5.21
2019-03-18T00:16:45.911Z,5.22
2019-03-18T00:17:50.111Z,5.24
2019-03-18T00:18:54.299Z,5.27
2019-03-18T00:19:58.537Z,5.28
2019-03-18T00:21:02.704Z,5.30
2019-03-18T00:22:06.917Z,5.32
2019-03-18T00:23:11.141Z,5.33
2019-03-18T00:24:15.361Z,5.36
2019-03-18T00:25:19.606Z,5.37
2019-03-18T00:26:23.853Z,5.38
2019-03-18T00:27:27.984Z,5.39
2019-03-18T00:28:32.228Z,5.40
2019-03-18T00:29:36.333Z,5.41
2019-03-18T00:30:40.586Z,5.43
2019-03-18T00:31:44.899Z,5.45
2019-03-18T00:32:49.045Z,5.46
2019-03-18T00:33:53.354Z,5.48
2019-03-18T00:34:57.527Z,5.49
2019-03-18T00:36:01.767Z,5.51
2019-03-18T00:37:05.959Z,5.52
2019-03-18T00:38:10.189Z,5.53
2019-03-18T00:39:14.420Z,5.54
2019-03-18T00:40:18.673Z,5.53
2019-03-18T00:41:22.897Z,5.53
2019-03-18T00:42:27.134Z,5.53
2019-03-18T00:43:31.223Z,5.53
2019-03-18T00:44:35.495Z,5.53
2019-03-18T00:45:40.489Z,5.54
2019-03-18T00:46:43.860Z,5.54
2019-03-18T00:47:48.153Z,5.55
2019-03-18T00:48:52.367Z,5.54
2019-03-18T00:49:56.605Z,5.54
2019-03-18T00:51:00.701Z,5.53
2019-03-18T00:52:04.952Z,5.53
2019-03-18T00:53:12.159Z,5.53
2019-03-18T00:54:15.491Z,5.53
2019-03-18T00:55:19.695Z,5.53
2019-03-18T00:56:23.931Z,5.54
2019-03-18T00:57:28.026Z,5.55
2019-03-18T00:58:32.314Z,5.56
2019-03-18T00:59:36.526Z,5.58
2019-03-18T01:00:40.706Z,5.58
2019-03-18T01:01:44.929Z,5.58
2019-03-18T01:02:49.978Z,5.57
2019-03-18T01:03:53.280Z,5.58
2019-03-18T01:04:57.565Z,5.58
2019-03-18T01:06:01.848Z,5.58
2019-03-18T01:07:06.115Z,5.59
2019-03-18T01:08:10.346Z,5.60
2019-03-18T01:09:14.540Z,5.61
2019-03-18T01:10:18.767Z,5.60
2019-03-18T01:11:23.018Z,5.61
2019-03-18T01:12:27.192Z,5.61
2019-03-18T01:13:31.308Z,5.61
2019-03-18T01:14:35.615Z,5.62
2019-03-18T01:15:39.820Z,5.64
2019-03-18T01:16:44.050Z,5.66
2019-03-18T01:17:48.184Z,5.68
2019-03-18T01:18:52.428Z,5.69
2019-03-18T01:19:56.680Z,5.70
2019-03-18T01:21:00.914Z,5.72
2019-03-18T01:22:05.155Z,5.72
2019-03-18T01:23:09.344Z,5.73
2019-03-18T01:24:13.449Z,5.74
2019-03-18T01:25:17.730Z,5.73
2019-03-18T01:26:21.973Z,5.72
2019-03-18T01:27:26.184Z,5.71
2019-03-18T01:28:30.390Z,5.71
2019-03-18T01:29:34.537Z,5.71
2019-03-18T01:30:41.790Z,5.72
2019-03-18T01:31:45.089Z,5.73
2019-03-18T01:32:49.117Z,5.75
2019-03-18T01:33:53.432Z,5.76
2019-03-18T01:34:57.628Z,5.77
2019-03-18T01:36:01.836Z,5.78
2019-03-18T01:37:06.094Z,5.80
2019-03-18T01:38:10.334Z,5.81
2019-03-18T01:39:14.472Z,5.82
2019-03-18T01:40:18.757Z,5.82
2019-03-18T01:41:22.950Z,5.82
2019-03-18T01:42:27.089Z,5.82
2019-03-18T01:43:31.374Z,5.82
2019-03-18T01:44:35.598Z,5.83
2019-03-18T01:45:41.118Z,5.84
2019-03-18T01:46:43.975Z,5.83
2019-03-18T01:47:48.232Z,5.84
2019-03-18T01:48:52.420Z,5.84
2019-03-18T01:49:56.663Z,5.85
2019-03-18T01:51:00.922Z,5.86
2019-03-18T01:52:05.164Z,5.87
2019-03-18T01:53:09.419Z,5.88
2019-03-18T01:54:13.654Z,5.88
2019-03-18T01:55:17.838Z,5.87
2019-03-18T01:56:22.069Z,5.86
2019-03-18T01:57:26.315Z,5.86
2019-03-18T01:58:30.545Z,5.86
2019-03-18T01:59:34.780Z,5.87
2019-03-18T02:00:39.111Z,5.87
2019-03-18T02:01:43.318Z,5.87
2019-03-18T02:02:47.519Z,5.87
2019-03-18T02:03:51.745Z,5.86
2019-03-18T02:04:55.970Z,5.86
2019-03-18T02:06:00.201Z,5.86
2019-03-18T02:07:04.450Z,5.85
2019-03-18T02:08:08.691Z,5.84
2019-03-18T02:09:12.932Z,5.85
2019-03-18T02:10:17.051Z,5.84
2019-03-18T02:11:21.308Z,5.84
2019-03-18T02:12:25.441Z,5.83
2019-03-18T02:13:29.733Z,5.84
2019-03-18T02:14:34.012Z,5.85
2019-03-18T02:15:38.184Z,5.85
2019-03-18T02:16:42.437Z,5.86
2019-03-18T02:17:46.699Z,5.85
2019-03-18T02:18:50.877Z,5.82
2019-03-18T02:19:55.073Z,5.82
2019-03-18T02:20:59.154Z,5.82
2019-03-18T02:22:06.437Z,5.83
2019-03-18T02:23:09.742Z,5.83
2019-03-18T02:24:13.908Z,5.85
2019-03-18T02:25:18.092Z,5.86
2019-03-18T02:26:22.332Z,5.87
2019-03-18T02:27:26.506Z,5.88
2019-03-18T02:28:30.637Z,5.89
2019-03-18T02:29:34.906Z,6.12
2019-03-18T02:30:39.134Z,5.92
2019-03-18T02:31:43.364Z,5.91
2019-03-18T02:32:47.586Z,5.90
2019-03-18T02:33:51.900Z,5.90
2019-03-18T02:34:56.082Z,5.90
2019-03-18T02:36:00.301Z,5.91
2019-03-18T02:37:04.535Z,5.92
2019-03-18T02:38:08.732Z,5.93
2019-03-18T02:39:12.968Z,5.93
2019-03-18T02:40:17.168Z,5.94
2019-03-18T02:41:21.429Z,5.94
2019-03-18T02:42:25.588Z,5.94
2019-03-18T02:43:29.801Z,5.94
2019-03-18T02:44:33.965Z,5.94
2019-03-18T02:45:38.217Z,5.95
2019-03-18T02:46:42.445Z,5.95
2019-03-18T02:47:46.636Z,5.96
2019-03-18T02:48:50.884Z,5.97
2019-03-18T02:49:54.992Z,5.97
2019-03-18T02:50:59.246Z,5.98
2019-03-18T02:52:03.574Z,5.99
2019-03-18T02:53:07.760Z,5.99
2019-03-18T02:54:12.013Z,5.99
2019-03-18T02:55:16.143Z,5.99
2019-03-18T02:56:20.424Z,5.98
2019-03-18T02:57:24.573Z,5.98
2019-03-18T02:58:28.830Z,5.98
2019-03-18T02:59:33.113Z,5.98
2019-03-18T03:00:37.407Z,5.98
2019-03-18T03:01:41.588Z,5.99
2019-03-18T03:02:45.788Z,5.99
2019-03-18T03:03:49.988Z,5.99
2019-03-18T03:04:54.232Z,5.98
2019-03-18T03:05:58.425Z,5.99
2019-03-18T03:07:02.580Z,6.00
2019-03-18T03:08:06.804Z,6.01
2019-03-18T03:09:11.035Z,6.02
2019-03-18T03:10:15.255Z,6.03
2019-03-18T03:11:19.545Z,6.04
2019-03-18T03:12:23.695Z,6.04
2019-03-18T03:13:27.892Z,6.03
2019-03-18T03:14:32.258Z,6.03
2019-03-18T03:15:36.252Z,6.04
2019-03-18T03:16:40.708Z,6.05
2019-03-18T03:17:44.827Z,6.07
2019-03-18T03:18:49.059Z,6.08
2019-03-18T03:19:53.287Z,6.09
2019-03-18T03:20:57.529Z,6.10
2019-03-18T03:22:01.765Z,6.11
2019-03-18T03:23:05.993Z,6.11
2019-03-18T03:24:10.243Z,6.11
2019-03-18T03:25:14.491Z,6.11
2019-03-18T03:26:18.712Z,6.12
2019-03-18T03:27:22.886Z,6.12
2019-03-18T03:28:27.105Z,6.13
2019-03-18T03:29:31.338Z,6.13
2019-03-18T03:30:35.575Z,6.12
2019-03-18T03:31:39.689Z,6.12
2019-03-18T03:32:44.090Z,6.12
2019-03-18T03:33:48.349Z,6.10
2019-03-18T03:34:52.552Z,6.09
2019-03-18T03:35:56.775Z,6.08
2019-03-18T03:37:01.030Z,6.07
2019-03-18T03:38:05.252Z,6.07
2019-03-18T03:39:09.500Z,6.07
2019-03-18T03:40:13.788Z,6.07
2019-03-18T03:41:18.679Z,6.05
2019-03-18T03:42:22.209Z,6.03
2019-03-18T03:43:26.415Z,6.02
2019-03-18T03:44:30.553Z,6.00
2019-03-18T03:45:34.840Z,5.99
2019-03-18T03:46:43.419Z,5.98
2019-03-18T03:47:43.273Z,5.96
2019-03-18T03:48:47.503Z,5.95
2019-03-18T03:49:51.709Z,5.95
2019-03-18T03:50:55.976Z,5.94
2019-03-18T03:52:00.177Z,5.94
2019-03-18T03:53:04.390Z,5.95
2019-03-18T03:54:08.650Z,5.93
2019-03-18T03:55:12.999Z,5.93
2019-03-18T03:56:17.155Z,5.92
2019-03-18T03:57:21.358Z,5.91
2019-03-18T03:58:25.570Z,5.91
2019-03-18T03:59:29.780Z,5.90
2019-03-18T04:00:34.031Z,5.90
2019-03-18T04:01:38.337Z,5.90
2019-03-18T04:02:42.489Z,5.90
2019-03-18T04:03:46.716Z,5.90
2019-03-18T04:04:50.847Z,5.91
2019-03-18T04:05:55.122Z,5.92
2019-03-18T04:06:59.320Z,5.94
2019-03-18T04:08:03.541Z,5.92
2019-03-18T04:09:07.670Z,5.93
2019-03-18T04:10:11.936Z,5.94
2019-03-18T04:11:16.193Z,5.95
2019-03-18T04:12:20.450Z,5.95
2019-03-18T04:13:24.564Z,5.96
2019-03-18T04:14:28.886Z,5.97
2019-03-18T04:15:33.117Z,5.97
2019-03-18T04:16:37.350Z,5.97
2019-03-18T04:17:41.546Z,5.95
2019-03-18T04:18:45.707Z,5.95
2019-03-18T04:19:49.939Z,5.95
2019-03-18T04:20:54.215Z,5.96
2019-03-18T04:21:58.322Z,5.96
2019-03-18T04:23:02.608Z,5.95
2019-03-18T04:24:06.959Z,5.95
2019-03-18T04:25:11.141Z,5.94
2019-03-18T04:26:15.288Z,5.93
2019-03-18T04:27:19.508Z,5.90
2019-03-18T04:28:23.748Z,5.87
2019-03-18T04:29:27.924Z,5.86
2019-03-18T04:30:32.115Z,5.86
2019-03-18T04:31:36.327Z,5.85
2019-03-18T04:32:40.549Z,5.86
2019-03-18T04:33:44.803Z,5.86
2019-03-18T04:34:49.027Z,5.85
2019-03-18T04:35:53.264Z,5.83
2019-03-18T04:36:57.493Z,5.83
2019-03-18T04:38:01.688Z,5.81
2019-03-18T04:39:05.908Z,5.80
2019-03-18T04:40:10.142Z,5.79
2019-03-18T04:41:14.323Z,5.77
2019-03-18T04:42:18.739Z,5.77
2019-03-18T04:43:22.754Z,5.76
2019-03-18T04:44:26.980Z,5.76
2019-03-18T04:45:31.206Z,5.76
2019-03-18T04:46:35.472Z,5.75
2019-03-18T04:47:39.561Z,5.75
2019-03-18T04:48:43.825Z,5.74
2019-03-18T04:49:47.948Z,5.73
2019-03-18T04:50:52.210Z,5.72
2019-03-18T04:51:56.336Z,5.72
2019-03-18T04:53:00.603Z,5.72
2019-03-18T04:54:04.814Z,5.73
2019-03-18T04:55:09.041Z,5.72
2019-03-18T04:56:13.233Z,5.71
2019-03-18T04:57:17.462Z,5.69
2019-03-18T04:58:21.668Z,5.69
2019-03-18T04:59:25.788Z,5.69
2019-03-18T05:00:30.047Z,5.69
2019-03-18T05:01:34.065Z,5.70
2019-03-18T05:02:38.401Z,5.71
2019-03-18T05:03:42.576Z,5.72
2019-03-18T05:04:46.801Z,5.74
2019-03-18T05:05:50.916Z,5.76
2019-03-18T05:06:55.248Z,5.78
2019-03-18T05:07:59.546Z,5.79
2019-03-18T05:09:03.718Z,5.80
2019-03-18T05:10:07.926Z,5.81
2019-03-18T05:11:12.137Z,5.83
2019-03-18T05:12:16.368Z,5.83
2019-03-18T05:13:20.554Z,5.82
2019-03-18T05:14:24.773Z,5.81
2019-03-18T05:15:28.983Z,5.81
2019-03-18T05:16:33.215Z,5.81
2019-03-18T05:17:37.450Z,5.82
2019-03-18T05:18:41.618Z,5.82
2019-03-18T05:19:45.865Z,5.82
2019-03-18T05:20:50.043Z,5.82
2019-03-18T05:21:54.242Z,5.81
2019-03-18T05:22:58.478Z,5.80
2019-03-18T05:24:02.673Z,5.79
2019-03-18T05:25:06.889Z,5.78
2019-03-18T05:26:11.133Z,5.79
2019-03-18T05:27:15.272Z,5.79
2019-03-18T05:28:19.542Z,5.79
2019-03-18T05:29:26.672Z,5.80
2019-03-18T05:30:30.001Z,5.80
2019-03-18T05:31:34.200Z,5.79
2019-03-18T05:32:38.395Z,5.79
2019-03-18T05:33:42.508Z,5.79
2019-03-18T05:34:46.781Z,5.80
2019-03-18T05:35:51.002Z,5.82
2019-03-18T05:36:55.238Z,5.83
2019-03-18T05:37:59.428Z,5.84
2019-03-18T05:39:03.644Z,5.82
2019-03-18T05:40:07.886Z,5.82
2019-03-18T05:41:12.107Z,5.82
2019-03-18T05:42:16.264Z,5.81
2019-03-18T05:43:20.555Z,5.80
2019-03-18T05:44:24.786Z,5.80
2019-03-18T05:45:29.000Z,5.81
2019-03-18T05:46:33.200Z,5.82
2019-03-18T05:47:39.695Z,5.83
2019-03-18T05:48:41.709Z,5.83
2019-03-18T05:49:45.902Z,5.83
2019-03-18T05:50:50.153Z,5.84
2019-03-18T05:51:54.339Z,5.85
2019-03-18T05:52:58.626Z,5.85
2019-03-18T05:54:02.818Z,5.85
2019-03-18T05:55:07.028Z,5.85
2019-03-18T05:56:11.244Z,5.85
2019-03-18T05:57:15.454Z,5.86
2019-03-18T05:58:19.550Z,5.87
2019-03-18T05:59:23.851Z,5.88
2019-03-18T06:00:28.052Z,5.87
2019-03-18T06:01:32.247Z,5.88
2019-03-18T06:02:36.462Z,5.88
2019-03-18T06:03:40.806Z,5.88
2019-03-18T06:04:44.969Z,5.89
2019-03-18T06:05:49.211Z,5.90
2019-03-18T06:06:53.443Z,5.91
2019-03-18T06:07:57.645Z,5.93
2019-03-18T06:09:01.892Z,5.93
2019-03-18T06:10:06.129Z,5.92
2019-03-18T06:11:10.366Z,5.93
2019-03-18T06:12:14.641Z,5.94
2019-03-18T06:13:18.834Z,5.95
2019-03-18T06:14:23.190Z,5.97
2019-03-18T06:15:27.442Z,5.99
2019-03-18T06:16:31.582Z,6.00
2019-03-18T06:17:35.751Z,6.01
2019-03-18T06:18:40.000Z,6.02
2019-03-18T06:19:44.228Z,6.02
2019-03-18T06:20:48.360Z,6.02
2019-03-18T06:21:52.655Z,6.02
2019-03-18T06:22:56.888Z,6.03
2019-03-18T06:24:01.088Z,6.04
2019-03-18T06:25:05.233Z,6.04
2019-03-18T06:26:09.499Z,6.04
2019-03-18T06:27:13.717Z,6.04
2019-03-18T06:28:17.928Z,6.04
2019-03-18T06:29:22.177Z,6.04
2019-03-18T06:30:26.420Z,6.04
2019-03-18T06:31:30.544Z,6.04
2019-03-18T06:32:34.733Z,6.05
2019-03-18T06:33:39.037Z,6.06
2019-03-18T06:34:43.285Z,6.06
2019-03-18T06:35:47.458Z,6.08
2019-03-18T06:36:51.693Z,6.11
2019-03-18T06:37:55.992Z,6.15
2019-03-18T06:39:00.218Z,6.20
2019-03-18T06:40:04.549Z,6.23
2019-03-18T06:41:08.635Z,6.27
2019-03-18T06:42:12.929Z,6.32
2019-03-18T06:43:17.243Z,6.35
2019-03-18T06:44:21.411Z,6.37
2019-03-18T06:45:25.645Z,6.37
2019-03-18T06:46:29.899Z,6.39
2019-03-18T06:47:34.004Z,6.40
2019-03-18T06:48:38.269Z,6.42
2019-03-18T06:49:42.490Z,6.45
2019-03-18T06:50:46.735Z,6.46
2019-03-18T06:51:50.944Z,6.47
2019-03-18T06:52:55.171Z,6.46
2019-03-18T06:53:59.425Z,6.45
2019-03-18T06:55:03.657Z,6.45
2019-03-18T06:56:07.886Z,6.44
2019-03-18T06:57:12.199Z,6.44
2019-03-18T06:58:16.365Z,6.43
2019-03-18T06:59:20.620Z,6.43
2019-03-18T07:00:24.852Z,6.45
2019-03-18T07:01:29.094Z,6.46
2019-03-18T07:02:33.301Z,6.47
2019-03-18T07:03:37.544Z,6.47
2019-03-18T07:04:41.778Z,6.46
2019-03-18T07:05:46.273Z,6.45
2019-03-18T07:06:50.214Z,6.44
2019-03-18T07:07:54.521Z,6.42
2019-03-18T07:08:58.701Z,6.42
2019-03-18T07:10:02.889Z,6.44
2019-03-18T07:11:07.081Z,6.43
2019-03-18T07:12:11.344Z,6.42
2019-03-18T07:13:15.554Z,6.41
2019-03-18T07:14:19.810Z,6.40
2019-03-18T07:15:24.034Z,6.39
2019-03-18T07:16:28.253Z,6.39
2019-03-18T07:17:32.507Z,6.38
2019-03-18T07:18:36.716Z,6.36
2019-03-18T07:19:40.863Z,6.34
2019-03-18T07:20:45.184Z,6.33
2019-03-18T07:21:49.523Z,6.33
2019-03-18T07:22:53.675Z,6.34
2019-03-18T07:23:57.893Z,6.34
2019-03-18T07:25:02.147Z,6.34
2019-03-18T07:26:06.383Z,6.34
2019-03-18T07:27:10.643Z,6.34
2019-03-18T07:28:14.860Z,6.33
2019-03-18T07:29:19.148Z,6.33
2019-03-18T07:30:26.275Z,6.32
2019-03-18T07:31:29.601Z,6.31
2019-03-18T07:32:33.773Z,6.30
2019-03-18T07:33:38.117Z,6.30
2019-03-18T07:34:42.306Z,6.29
2019-03-18T07:35:46.414Z,6.28
2019-03-18T07:36:50.814Z,6.26
2019-03-18T07:37:54.980Z,6.26
2019-03-18T07:38:59.188Z,6.26
2019-03-18T07:40:03.484Z,6.26
2019-03-18T07:41:07.679Z,6.28
2019-03-18T07:42:11.878Z,6.29
2019-03-18T07:43:16.190Z,6.30
2019-03-18T07:44:20.425Z,6.32
2019-03-18T07:45:24.628Z,6.34
2019-03-18T07:46:28.945Z,6.37
2019-03-18T07:47:33.135Z,6.39
2019-03-18T07:48:37.450Z,6.42
2019-03-18T07:49:41.469Z,6.45
2019-03-18T07:50:45.805Z,6.47
2019-03-18T07:51:50.166Z,6.49
2019-03-18T07:52:54.347Z,6.51
2019-03-18T07:53:58.568Z,6.53
2019-03-18T07:55:02.724Z,6.57
2019-03-18T07:56:07.015Z,6.60
2019-03-18T07:57:11.277Z,6.65
2019-03-18T07:58:16.411Z,6.70
2019-03-18T07:59:20.205Z,6.73
2019-03-18T08:00:24.502Z,6.75
2019-03-18T08:01:28.715Z,6.76
2019-03-18T08:02:33.012Z,6.77
2019-03-18T08:03:37.191Z,6.78
2019-03-18T08:04:41.394Z,6.78
2019-03-18T08:05:45.675Z,6.79
2019-03-18T08:06:49.924Z,6.79
2019-03-18T08:07:54.171Z,6.80
2019-03-18T08:08:58.506Z,6.81
2019-03-18T08:10:02.568Z,6.84
2019-03-18T08:11:06.849Z,6.83
2019-03-18T08:12:11.034Z,6.82
2019-03-18T08:13:15.398Z,6.82
2019-03-18T08:14:19.631Z,6.80
2019-03-18T08:15:23.932Z,6.78
2019-03-18T08:16:28.175Z,6.79
2019-03-18T08:17:32.527Z,6.81
2019-03-18T08:18:43.143Z,6.85
2019-03-18T08:19:41.054Z,6.88
2019-03-18T08:20:45.249Z,6.91
2019-03-18T08:21:49.504Z,6.94
2019-03-18T08:22:53.802Z,6.98
2019-03-18T08:23:58.041Z,7.00
2019-03-18T08:25:02.190Z,7.00
2019-03-18T08:26:06.490Z,7.01
2019-03-18T08:27:10.640Z,7.01
2019-03-18T08:28:14.972Z,7.02
2019-03-18T08:29:19.243Z,7.04
2019-03-18T08:30:23.474Z,7.05
2019-03-18T08:31:27.582Z,7.02
2019-03-18T08:32:31.906Z,7.01
2019-03-18T08:33:36.233Z,7.00
2019-03-18T08:34:40.404Z,7.00
2019-03-18T08:35:44.549Z,7.02
2019-03-18T08:36:48.807Z,7.01
2019-03-18T08:37:54.847Z,6.98
2019-03-18T08:38:57.361Z,6.97
2019-03-18T08:40:01.691Z,6.98
2019-03-18T08:41:05.865Z,6.99
2019-03-18T08:42:10.154Z,7.01
2019-03-18T08:43:14.417Z,7.03
2019-03-18T08:44:18.529Z,7.03
2019-03-18T08:45:22.828Z,7.06
2019-03-18T08:46:27.173Z,7.09
2019-03-18T08:47:31.349Z,7.09
2019-03-18T08:48:35.507Z,7.10
2019-03-18T08:49:39.877Z,7.11
2019-03-18T08:50:44.108Z,7.13
2019-03-18T08:51:48.352Z,7.15
2019-03-18T08:52:52.606Z,7.16
2019-03-18T08:53:56.652Z,7.17
2019-03-18T08:55:00.967Z,7.19
2019-03-18T08:56:05.189Z,7.20
2019-03-18T08:57:09.413Z,7.19
2019-03-18T08:58:13.542Z,7.19
2019-03-18T08:59:17.780Z,7.18
2019-03-18T09:00:21.891Z,7.17
2019-03-18T09:01:26.093Z,7.18
2019-03-18T09:02:30.414Z,7.17
2019-03-18T09:03:34.576Z,7.20
2019-03-18T09:04:38.765Z,7.24
2019-03-18T09:05:43.055Z,7.27
2019-03-18T09:06:47.186Z,7.28
2019-03-18T09:07:51.614Z,7.26
2019-03-18T09:08:55.790Z,7.26
2019-03-18T09:09:59.918Z,7.24
2019-03-18T09:11:04.036Z,7.23
2019-03-18T09:12:08.381Z,7.22
2019-03-18T09:13:12.745Z,7.23
2019-03-18T09:14:16.958Z,7.26
2019-03-18T09:15:21.172Z,7.26
2019-03-18T09:16:25.508Z,7.28
2019-03-18T09:17:29.661Z,7.30
2019-03-18T09:18:33.978Z,7.33
2019-03-18T09:19:38.071Z,7.36
2019-03-18T09:20:42.396Z,7.40
2019-03-18T09:21:46.674Z,7.42
2019-03-18T09:22:50.791Z,7.45
2019-03-18T09:23:55.132Z,7.50
2019-03-18T09:24:59.422Z,7.56
2019-03-18T09:26:03.488Z,7.62
2019-03-18T09:27:07.846Z,7.69
2019-03-18T09:28:12.031Z,7.75
2019-03-18T09:29:16.333Z,7.79
2019-03-18T09:30:20.572Z,7.81
2019-03-18T09:31:24.774Z,7.82
2019-03-18T09:32:29.062Z,7.82
2019-03-18T09:33:33.167Z,7.81
2019-03-18T09:34:37.504Z,7.82
2019-03-18T09:35:41.727Z,7.82
2019-03-18T09:36:46.823Z,7.82
2019-03-18T09:37:50.704Z,7.84
2019-03-18T09:38:54.994Z,7.86
2019-03-18T09:39:59.128Z,7.87
2019-03-18T09:41:03.417Z,7.88
2019-03-18T09:42:07.766Z,7.89
2019-03-18T09:43:11.993Z,7.89
2019-03-18T09:44:16.150Z,7.89
2019-03-18T09:45:20.532Z,7.89
2019-03-18T09:46:24.642Z,7.88
2019-03-18T09:47:28.958Z,7.87
2019-03-18T09:48:33.207Z,7.88
2019-03-18T09:49:37.400Z,7.93
2019-03-18T09:50:41.589Z,7.95
2019-03-18T09:51:45.825Z,7.96
2019-03-18T09:52:50.100Z,7.99
2019-03-18T09:53:54.310Z,8.01
2019-03-18T09:54:58.543Z,8.02
2019-03-18T09:56:02.824Z,8.00
2019-03-18T09:57:07.066Z,7.99
2019-03-18T09:58:11.334Z,7.95
2019-03-18T09:59:15.545Z,7.94
2019-03-18T10:00:19.834Z,7.94
2019-03-18T10:01:24.028Z,7.93
2019-03-18T10:02:28.330Z,7.90
2019-03-18T10:03:32.588Z,7.89
2019-03-18T10:04:36.772Z,7.90
2019-03-18T10:05:43.763Z,7.91
2019-03-18T10:06:45.268Z,7.91
2019-03-18T10:07:49.529Z,7.90
2019-03-18T10:08:53.585Z,7.89
2019-03-18T10:09:57.933Z,7.90
2019-03-18T10:11:02.140Z,7.89
2019-03-18T10:12:06.301Z,7.88
2019-03-18T10:13:10.594Z,7.88
2019-03-18T10:14:14.851Z,7.88
2019-03-18T10:15:19.125Z,7.85
2019-03-18T10:16:23.298Z,7.87
2019-03-18T10:17:27.442Z,7.93
2019-03-18T10:18:31.742Z,7.99
2019-03-18T10:19:35.888Z,8.05
2019-03-18T10:20:40.217Z,8.09
2019-03-18T10:21:44.335Z,8.12
2019-03-18T10:22:48.641Z,8.15
2019-03-18T10:23:52.814Z,8.16
2019-03-18T10:24:57.223Z,8.17
2019-03-18T10:26:01.414Z,8.19
2019-03-18T10:27:05.560Z,8.20
2019-03-18T10:28:09.860Z,8.22
2019-03-18T10:29:14.031Z,8.22
2019-03-18T10:30:18.352Z,8.23
2019-03-18T10:31:22.585Z,8.25
2019-03-18T10:32:26.748Z,8.23
2019-03-18T10:33:31.038Z,8.27
2019-03-18T10:34:35.169Z,8.29
2019-03-18T10:35:39.513Z,8.32
2019-03-18T10:36:43.771Z,8.34
2019-03-18T10:37:48.089Z,8.33
2019-03-18T10:38:52.946Z,8.30
2019-03-18T10:39:56.565Z,8.26
2019-03-18T10:41:00.795Z,8.25
2019-03-18T10:42:04.931Z,8.25
2019-03-18T10:43:09.054Z,8.28
2019-03-18T10:44:13.383Z,8.29
2019-03-18T10:45:17.557Z,8.30
2019-03-18T10:46:21.869Z,8.29
2019-03-18T10:47:26.061Z,8.31
2019-03-18T10:48:30.250Z,8.31
2019-03-18T10:49:45.399Z,8.32
2019-03-18T10:50:38.710Z,8.32
2019-03-18T10:51:43.089Z,8.30
2019-03-18T10:52:47.329Z,8.29
2019-03-18T10:53:51.542Z,8.26
2019-03-18T10:54:55.818Z,8.22
2019-03-18T10:56:07.694Z,8.21
2019-03-18T10:57:04.271Z,8.17
2019-03-18T10:58:08.538Z,8.17
2019-03-18T10:59:12.890Z,8.12
2019-03-18T11:00:17.166Z,8.12
2019-03-18T11:01:21.399Z,8.14
2019-03-18T11:02:25.518Z,8.19
2019-03-18T11:03:29.824Z,8.25
2019-03-18T11:04:34.086Z,8.31
2019-03-18T11:05:38.358Z,8.37
2019-03-18T11:06:42.567Z,8.42
2019-03-18T11:07:46.831Z,8.42
2019-03-18T11:08:51.079Z,8.40
2019-03-18T11:09:55.336Z,8.38
2019-03-18T11:10:59.754Z,8.35
2019-03-18T11:12:03.984Z,8.27
2019-03-18T11:13:08.132Z,8.23
2019-03-18T11:14:12.317Z,8.23
2019-03-18T11:15:16.614Z,8.23
2019-03-18T11:16:20.791Z,8.27
2019-03-18T11:17:25.121Z,8.34
2019-03-18T11:18:29.264Z,8.45
2019-03-18T11:19:33.554Z,8.57
2019-03-18T11:20:37.851Z,8.72
2019-03-18T11:21:42.036Z,8.83
2019-03-18T11:22:46.423Z,8.92
2019-03-18T11:23:50.649Z,8.97
2019-03-18T11:24:54.910Z,8.96
2019-03-18T11:25:59.180Z,8.93
2019-03-18T11:27:03.476Z,8.93
2019-03-18T11:28:07.808Z,8.89
2019-03-18T11:29:11.879Z,8.86
2019-03-18T11:30:16.190Z,8.85
2019-03-18T11:31:20.503Z,8.90
2019-03-18T11:32:24.742Z,9.00
2019-03-18T11:33:29.124Z,9.12
2019-03-18T11:34:33.308Z,9.21
2019-03-18T11:35:37.546Z,9.29
2019-03-18T11:36:41.774Z,9.31
2019-03-18T11:37:46.131Z,9.22
2019-03-18T11:38:50.366Z,9.19
2019-03-18T11:39:54.602Z,9.24
2019-03-18T11:40:58.891Z,9.35
2019-03-18T11:42:03.165Z,9.45
2019-03-18T11:43:07.437Z,9.58
2019-03-18T11:44:11.716Z,9.69
2019-03-18T11:45:15.990Z,9.74
2019-03-18T11:46:20.230Z,9.72
2019-03-18T11:47:24.439Z,9.71
2019-03-18T11:48:28.831Z,9.76
2019-03-18T11:49:39.479Z,9.85
2019-03-18T11:50:37.307Z,9.94
2019-03-18T11:51:44.586Z,10.03
2019-03-18T11:52:47.951Z,10.13
2019-03-18T11:53:52.311Z,10.19
2019-03-18T11:54:56.461Z,10.19
2019-03-18T11:56:00.884Z,10.23
2019-03-18T11:57:05.167Z,10.19
2019-03-18T11:58:09.342Z,10.13
2019-03-18T11:59:13.721Z,10.08
2019-03-18T12:00:17.864Z,10.00
2019-03-18T12:01:22.182Z,9.94
2019-03-18T12:02:28.059Z,9.97
2019-03-18T12:03:30.733Z,10.00
2019-03-18T12:04:34.964Z,10.00
2019-03-18T12:05:39.281Z,9.97
2019-03-18T12:06:43.682Z,9.97
2019-03-18T12:07:47.932Z,9.94
2019-03-18T12:08:52.225Z,9.88
2019-03-18T12:09:56.588Z,9.80
2019-03-18T12:11:00.809Z,9.71
2019-03-18T12:12:05.058Z,9.61
2019-03-18T12:13:09.334Z,9.54
2019-03-18T12:14:13.628Z,9.50
2019-03-18T12:15:17.904Z,9.43
2019-03-18T12:16:22.186Z,9.41
2019-03-18T12:17:28.495Z,9.41
2019-03-18T12:18:30.725Z,9.39
2019-03-18T12:19:34.887Z,9.37
2019-03-18T12:20:39.253Z,9.30
2019-03-18T12:21:43.469Z,9.21
2019-03-18T12:22:47.785Z,9.15
2019-03-18T12:23:52.076Z,9.09
2019-03-18T12:24:56.406Z,8.97
2019-03-18T12:26:00.614Z,8.87
2019-03-18T12:27:04.843Z,8.76
2019-03-18T12:28:09.096Z,8.67
2019-03-18T12:29:13.354Z,8.58
2019-03-18T12:30:17.590Z,8.54
2019-03-18T12:31:21.981Z,8.53
2019-03-18T12:32:26.134Z,8.54
2019-03-18T12:33:30.383Z,8.53
2019-03-18T12:34:34.621Z,8.53
2019-03-18T12:35:38.901Z,8.53
2019-03-18T12:36:43.141Z,8.54
2019-03-18T12:37:47.387Z,8.57
2019-03-18T12:38:51.664Z,8.56
2019-03-18T12:39:55.802Z,8.56
2019-03-18T12:41:00.119Z,8.58
2019-03-18T12:42:04.380Z,8.60
2019-03-18T12:43:08.492Z,8.62
2019-03-18T12:44:12.849Z,8.65
2019-03-18T12:45:17.055Z,8.65
2019-03-18T12:46:21.331Z,8.58
2019-03-18T12:47:25.602Z,8.54
2019-03-18T12:48:29.933Z,8.50
2019-03-18T12:49:34.055Z,8.43
2019-03-18T12:50:54.601Z,8.39
2019-03-18T12:51:42.599Z,8.36
2019-03-18T12:52:46.750Z,8.35
2019-03-18T12:53:50.969Z,8.35
2019-03-18T12:54:55.173Z,8.38
2019-03-18T12:55:59.487Z,8.44
2019-03-18T12:57:03.754Z,8.48
2019-03-18T12:58:08.087Z,8.52
2019-03-18T12:59:12.355Z,8.54
2019-03-18T13:00:16.523Z,8.56
2019-03-18T13:01:20.803Z,8.56
2019-03-18T13:02:24.928Z,8.56
2019-03-18T13:03:29.281Z,8.52
2019-03-18T13:04:34.243Z,8.48
2019-03-18T13:05:37.873Z,8.46
2019-03-18T13:06:42.181Z,8.47
2019-03-18T13:07:46.526Z,8.47
2019-03-18T13:08:50.858Z,8.49
2019-03-18T13:09:55.107Z,8.49
2019-03-18T13:10:59.269Z,8.52
2019-03-18T13:12:03.546Z,8.55
2019-03-18T13:13:07.689Z,8.58
2019-03-18T13:14:11.854Z,8.59
2019-03-18T13:15:16.166Z,8.59
2019-03-18T13:16:20.436Z,8.61
2019-03-18T13:17:24.605Z,8.64
2019-03-18T13:18:29.018Z,8.67
2019-03-18T13:19:33.245Z,8.71
2019-03-18T13:20:37.471Z,8.74
2019-03-18T13:21:41.765Z,8.76
2019-03-18T13:22:46.026Z,8.77
2019-03-18T13:23:50.362Z,8.77
2019-03-18T13:24:54.583Z,8.75
2019-03-18T13:25:58.855Z,8.72
2019-03-18T13:27:03.082Z,8.70
2019-03-18T13:28:07.366Z,8.66
2019-03-18T13:29:14.716Z,8.64
2019-03-18T13:30:18.004Z,8.57
2019-03-18T13:31:25.218Z,8.52
2019-03-18T13:32:28.551Z,8.47
2019-03-18T13:33:32.817Z,8.39
2019-03-18T13:34:37.008Z,8.31
2019-03-18T13:35:43.174Z,8.22
2019-03-18T13:36:45.493Z,8.12
2019-03-18T13:37:49.660Z,8.04
2019-03-18T13:38:53.935Z,7.97
2019-03-18T13:39:58.214Z,7.91
2019-03-18T13:41:02.357Z,7.89
2019-03-18T13:42:06.524Z,7.89
2019-03-18T13:43:10.814Z,7.91
2019-03-18T13:44:15.085Z,7.92
2019-03-18T13:45:19.267Z,7.90
2019-03-18T13:46:23.356Z,7.90
2019-03-18T13:47:27.622Z,7.98
2019-03-18T13:48:30.605Z,8.10
2019-03-18T13:49:34.965Z,8.21
2019-03-18T13:50:39.160Z,8.31
2019-03-18T13:51:43.441Z,8.40
2019-03-18T13:52:47.659Z,8.54
2019-03-18T13:53:51.928Z,8.69
2019-03-18T13:54:56.192Z,8.84
2019-03-18T13:56:00.360Z,8.96
2019-03-18T13:57:04.673Z,9.10
2019-03-18T13:58:08.813Z,9.25
2019-03-18T13:59:13.113Z,9.39
2019-03-18T14:00:17.359Z,9.47
2019-03-18T14:01:21.676Z,9.51
2019-03-18T14:02:25.856Z,9.52
2019-03-18T14:03:30.137Z,9.51
2019-03-18T14:04:34.423Z,9.52
2019-03-18T14:05:38.634Z,9.48
2019-03-18T14:06:42.942Z,9.48
2019-03-18T14:07:59.471Z,9.52
2019-03-18T14:08:51.345Z,9.57
2019-03-18T14:09:55.682Z,9.60
2019-03-18T14:10:59.951Z,9.62
2019-03-18T14:12:04.196Z,9.65
2019-03-18T14:13:08.442Z,9.63
2019-03-18T14:14:12.647Z,9.58
2019-03-18T14:15:16.941Z,9.51